sensor_id;sensor_type;location;lat;lon;timestamp;P1;durP1;ratioP1;P2;durP2;ratioP2
11481;SDS011;5797;51.662;6.748;2022-10-16T00:02:19;6.77;;;3.60;;
11481;SDS011;5797;51.662;6.748;2022-10-16T00:05:06;3.87;;;3.00;;
11481;SDS011;5797;51.662;6.748;2022-10-16T00:07:55;5.47;;;3.13;;
11481;SDS011;5797;51.662;6.748;2022-10-16T00:10:42;3.73;;;3.10;;
11481;SDS011;5797;51.662;6.748;2022-10-16T00:13:29;5.60;;;3.70;;
11481;SDS011;5797;51.662;6.748;2022-10-16T00:16:17;5.87;;;3.37;;
11481;SDS011;5797;51.662;6.748;2022-10-16T00:19:04;4.17;;;3.10;;
11481;SDS011;5797;51.662;6.748;2022-10-16T00:21:52;6.73;;;3.03;;
11481;SDS011;5797;51.662;6.748;2022-10-16T00:24:41;6.83;;;3.00;;
11481;SDS011;5797;51.662;6.748;2022-10-16T00:27:28;5.67;;;3.60;;
11481;SDS011;5797;51.662;6.748;2022-10-16T00:30:15;4.87;;;3.30;;
11481;SDS011;5797;51.662;6.748;2022-10-16T00:33:02;6.57;;;3.00;;
11481;SDS011;5797;51.662;6.748;2022-10-16T00:35:49;6.73;;;3.37;;
11481;SDS011;5797;51.662;6.748;2022-10-16T00:38:37;6.77;;;3.33;;
11481;SDS011;5797;51.662;6.748;2022-10-16T00:41:26;3.77;;;2.93;;
11481;SDS011;5797;51.662;6.748;2022-10-16T00:47:31;7.33;;;3.17;;
11481;SDS011;5797;51.662;6.748;2022-10-16T00:50:22;6.63;;;2.60;;
11481;SDS011;5797;51.662;6.748;2022-10-16T00:53:13;6.43;;;3.27;;
11481;SDS011;5797;51.662;6.748;2022-10-16T00:56:00;3.40;;;2.83;;
11481;SDS011;5797;51.662;6.748;2022-10-16T00:58:51;4.43;;;2.53;;
11481;SDS011;5797;51.662;6.748;2022-10-16T01:01:39;5.00;;;2.70;;
11481;SDS011;5797;51.662;6.748;2022-10-16T01:04:26;3.87;;;2.70;;
11481;SDS011;5797;51.662;6.748;2022-10-16T01:07:20;4.13;;;2.63;;
11481;SDS011;5797;51.662;6.748;2022-10-16T01:10:17;3.80;;;2.87;;
11481;SDS011;5797;51.662;6.748;2022-10-16T01:13:11;2.87;;;2.53;;
11481;SDS011;5797;51.662;6.748;2022-10-16T01:16:03;4.27;;;2.83;;
11481;SDS011;5797;51.662;6.748;2022-10-16T01:18:54;7.13;;;3.03;;
11481;SDS011;5797;51.662;6.748;2022-10-16T01:21:44;4.43;;;2.70;;
11481;SDS011;5797;51.662;6.748;2022-10-16T01:24:37;3.20;;;2.33;;
11481;SDS011;5797;51.662;6.748;2022-10-16T01:27:27;6.10;;;2.97;;
11481;SDS011;5797;51.662;6.748;2022-10-16T01:30:16;6.90;;;2.53;;
11481;SDS011;5797;51.662;6.748;2022-10-16T01:33:06;3.03;;;2.50;;
11481;SDS011;5797;51.662;6.748;2022-10-16T01:35:58;5.00;;;2.50;;
11481;SDS011;5797;51.662;6.748;2022-10-16T01:38:47;5.33;;;2.70;;
11481;SDS011;5797;51.662;6.748;2022-10-16T01:41:38;3.70;;;2.57;;
11481;SDS011;5797;51.662;6.748;2022-10-16T01:44:29;4.43;;;2.50;;
11481;SDS011;5797;51.662;6.748;2022-10-16T01:47:19;5.50;;;2.57;;
11481;SDS011;5797;51.662;6.748;2022-10-16T01:50:09;2.77;;;2.13;;
11481;SDS011;5797;51.662;6.748;2022-10-16T01:52:56;3.30;;;2.33;;
11481;SDS011;5797;51.662;6.748;2022-10-16T01:55:46;7.83;;;2.70;;
11481;SDS011;5797;51.662;6.748;2022-10-16T01:58:35;3.50;;;2.30;;
11481;SDS011;5797;51.662;6.748;2022-10-16T02:01:26;2.87;;;2.40;;
11481;SDS011;5797;51.662;6.748;2022-10-16T02:04:18;6.10;;;2.43;;
11481;SDS011;5797;51.662;6.748;2022-10-16T02:07:07;3.40;;;2.20;;
11481;SDS011;5797;51.662;6.748;2022-10-16T02:09:54;9.10;;;2.57;;
11481;SDS011;5797;51.662;6.748;2022-10-16T02:12:42;6.00;;;2.27;;
11481;SDS011;5797;51.662;6.748;2022-10-16T02:15:32;3.53;;;2.23;;
11481;SDS011;5797;51.662;6.748;2022-10-16T02:18:21;2.30;;;1.87;;
11481;SDS011;5797;51.662;6.748;2022-10-16T02:21:16;3.40;;;2.30;;
11481;SDS011;5797;51.662;6.748;2022-10-16T02:24:07;2.30;;;1.97;;
11481;SDS011;5797;51.662;6.748;2022-10-16T02:26:57;4.13;;;2.23;;
11481;SDS011;5797;51.662;6.748;2022-10-16T02:29:48;4.07;;;2.00;;
11481;SDS011;5797;51.662;6.748;2022-10-16T02:32:38;5.50;;;2.13;;
11481;SDS011;5797;51.662;6.748;2022-10-16T02:35:28;3.60;;;1.90;;
11481;SDS011;5797;51.662;6.748;2022-10-16T02:38:15;4.63;;;2.53;;
11481;SDS011;5797;51.662;6.748;2022-10-16T02:41:03;4.13;;;2.10;;
11481;SDS011;5797;51.662;6.748;2022-10-16T02:43:51;3.03;;;2.20;;
11481;SDS011;5797;51.662;6.748;2022-10-16T02:46:38;3.37;;;2.30;;
11481;SDS011;5797;51.662;6.748;2022-10-16T02:49:25;4.17;;;2.10;;
11481;SDS011;5797;51.662;6.748;2022-10-16T02:52:13;3.77;;;2.10;;
11481;SDS011;5797;51.662;6.748;2022-10-16T02:55:00;2.77;;;2.03;;
11481;SDS011;5797;51.662;6.748;2022-10-16T02:57:47;2.93;;;2.23;;
11481;SDS011;5797;51.662;6.748;2022-10-16T03:00:34;3.63;;;2.00;;
11481;SDS011;5797;51.662;6.748;2022-10-16T03:03:21;4.27;;;2.00;;
11481;SDS011;5797;51.662;6.748;2022-10-16T03:06:08;6.80;;;2.23;;
11481;SDS011;5797;51.662;6.748;2022-10-16T03:08:57;1.93;;;1.70;;
11481;SDS011;5797;51.662;6.748;2022-10-16T03:11:43;3.37;;;2.00;;
11481;SDS011;5797;51.662;6.748;2022-10-16T03:14:33;2.33;;;1.77;;
11481;SDS011;5797;51.662;6.748;2022-10-16T03:17:20;2.20;;;1.70;;
11481;SDS011;5797;51.662;6.748;2022-10-16T03:20:08;1.80;;;1.50;;
11481;SDS011;5797;51.662;6.748;2022-10-16T03:22:55;6.23;;;2.10;;
11481;SDS011;5797;51.662;6.748;2022-10-16T03:25:44;3.57;;;1.77;;
11481;SDS011;5797;51.662;6.748;2022-10-16T03:28:31;2.73;;;1.80;;
11481;SDS011;5797;51.662;6.748;2022-10-16T03:31:18;4.00;;;1.90;;
11481;SDS011;5797;51.662;6.748;2022-10-16T03:34:05;3.03;;;1.87;;
11481;SDS011;5797;51.662;6.748;2022-10-16T03:36:52;3.37;;;1.60;;
11481;SDS011;5797;51.662;6.748;2022-10-16T03:39:39;2.10;;;1.63;;
11481;SDS011;5797;51.662;6.748;2022-10-16T03:42:28;3.67;;;1.60;;
11481;SDS011;5797;51.662;6.748;2022-10-16T03:45:15;2.33;;;1.83;;
11481;SDS011;5797;51.662;6.748;2022-10-16T03:48:02;2.07;;;1.67;;
11481;SDS011;5797;51.662;6.748;2022-10-16T03:50:49;2.97;;;1.60;;
11481;SDS011;5797;51.662;6.748;2022-10-16T03:53:37;2.20;;;1.60;;
11481;SDS011;5797;51.662;6.748;2022-10-16T03:56:24;2.00;;;1.63;;
11481;SDS011;5797;51.662;6.748;2022-10-16T03:59:12;1.93;;;1.57;;
11481;SDS011;5797;51.662;6.748;2022-10-16T04:01:59;2.13;;;1.77;;
11481;SDS011;5797;51.662;6.748;2022-10-16T04:04:47;2.53;;;1.50;;
11481;SDS011;5797;51.662;6.748;2022-10-16T04:07:34;2.43;;;1.60;;
11481;SDS011;5797;51.662;6.748;2022-10-16T04:10:21;3.23;;;1.60;;
11481;SDS011;5797;51.662;6.748;2022-10-16T04:13:08;3.30;;;1.50;;
11481;SDS011;5797;51.662;6.748;2022-10-16T04:15:57;4.07;;;1.70;;
11481;SDS011;5797;51.662;6.748;2022-10-16T04:18:44;5.93;;;1.83;;
11481;SDS011;5797;51.662;6.748;2022-10-16T04:21:31;2.80;;;1.57;;
11481;SDS011;5797;51.662;6.748;2022-10-16T04:24:18;2.23;;;1.60;;
11481;SDS011;5797;51.662;6.748;2022-10-16T04:27:05;2.20;;;1.20;;
11481;SDS011;5797;51.662;6.748;2022-10-16T04:29:52;2.60;;;1.60;;
11481;SDS011;5797;51.662;6.748;2022-10-16T04:32:40;2.93;;;1.40;;
11481;SDS011;5797;51.662;6.748;2022-10-16T04:35:27;5.73;;;1.50;;
11481;SDS011;5797;51.662;6.748;2022-10-16T04:38:14;5.23;;;1.90;;
11481;SDS011;5797;51.662;6.748;2022-10-16T04:41:01;1.43;;;1.20;;
11481;SDS011;5797;51.662;6.748;2022-10-16T04:43:47;3.10;;;1.43;;
11481;SDS011;5797;51.662;6.748;2022-10-16T04:46:34;1.53;;;1.33;;
11481;SDS011;5797;51.662;6.748;2022-10-16T04:49:22;1.97;;;1.50;;
11481;SDS011;5797;51.662;6.748;2022-10-16T04:52:09;1.83;;;1.50;;
11481;SDS011;5797;51.662;6.748;2022-10-16T04:54:56;2.07;;;1.33;;
11481;SDS011;5797;51.662;6.748;2022-10-16T04:57:47;2.60;;;1.73;;
11481;SDS011;5797;51.662;6.748;2022-10-16T05:00:34;2.10;;;1.30;;
11481;SDS011;5797;51.662;6.748;2022-10-16T05:03:21;3.83;;;1.60;;
11481;SDS011;5797;51.662;6.748;2022-10-16T05:06:09;7.80;;;3.07;;
11481;SDS011;5797;51.662;6.748;2022-10-16T05:08:56;3.00;;;1.40;;
11481;SDS011;5797;51.662;6.748;2022-10-16T05:11:43;3.47;;;1.70;;
11481;SDS011;5797;51.662;6.748;2022-10-16T05:14:30;2.10;;;1.43;;
11481;SDS011;5797;51.662;6.748;2022-10-16T05:17:17;2.70;;;1.57;;
11481;SDS011;5797;51.662;6.748;2022-10-16T05:20:05;1.93;;;1.33;;
11481;SDS011;5797;51.662;6.748;2022-10-16T05:22:54;1.80;;;1.40;;
11481;SDS011;5797;51.662;6.748;2022-10-16T05:25:41;1.40;;;1.30;;
11481;SDS011;5797;51.662;6.748;2022-10-16T05:28:28;4.50;;;1.80;;
11481;SDS011;5797;51.662;6.748;2022-10-16T05:31:16;2.37;;;1.50;;
11481;SDS011;5797;51.662;6.748;2022-10-16T05:34:04;2.17;;;1.67;;
11481;SDS011;5797;51.662;6.748;2022-10-16T05:36:50;3.00;;;1.50;;
11481;SDS011;5797;51.662;6.748;2022-10-16T05:39:39;1.50;;;1.40;;
11481;SDS011;5797;51.662;6.748;2022-10-16T05:42:26;2.20;;;1.60;;
11481;SDS011;5797;51.662;6.748;2022-10-16T05:45:13;2.40;;;1.60;;
11481;SDS011;5797;51.662;6.748;2022-10-16T05:48:00;2.07;;;1.43;;
11481;SDS011;5797;51.662;6.748;2022-10-16T05:50:47;1.80;;;1.60;;
11481;SDS011;5797;51.662;6.748;2022-10-16T05:53:35;2.00;;;1.50;;
11481;SDS011;5797;51.662;6.748;2022-10-16T05:56:25;2.50;;;1.60;;
11481;SDS011;5797;51.662;6.748;2022-10-16T05:59:12;1.67;;;1.50;;
11481;SDS011;5797;51.662;6.748;2022-10-16T06:01:59;3.60;;;1.47;;
11481;SDS011;5797;51.662;6.748;2022-10-16T06:04:46;1.87;;;1.50;;
11481;SDS011;5797;51.662;6.748;2022-10-16T06:07:34;1.87;;;1.50;;
11481;SDS011;5797;51.662;6.748;2022-10-16T06:10:21;3.23;;;1.60;;
11481;SDS011;5797;51.662;6.748;2022-10-16T06:13:09;3.13;;;1.63;;
11481;SDS011;5797;51.662;6.748;2022-10-16T06:15:56;2.43;;;1.50;;
11481;SDS011;5797;51.662;6.748;2022-10-16T06:18:44;2.80;;;1.40;;
11481;SDS011;5797;51.662;6.748;2022-10-16T06:21:31;3.87;;;2.37;;
11481;SDS011;5797;51.662;6.748;2022-10-16T06:24:18;4.47;;;2.90;;
11481;SDS011;5797;51.662;6.748;2022-10-16T06:27:06;5.60;;;2.77;;
11481;SDS011;5797;51.662;6.748;2022-10-16T06:29:54;3.60;;;2.40;;
11481;SDS011;5797;51.662;6.748;2022-10-16T06:32:41;3.90;;;2.07;;
11481;SDS011;5797;51.662;6.748;2022-10-16T06:35:30;7.37;;;1.97;;
11481;SDS011;5797;51.662;6.748;2022-10-16T06:38:20;6.27;;;1.83;;
11481;SDS011;5797;51.662;6.748;2022-10-16T06:41:11;2.63;;;1.70;;
11481;SDS011;5797;51.662;6.748;2022-10-16T06:44:00;3.47;;;1.73;;
11481;SDS011;5797;51.662;6.748;2022-10-16T06:46:49;2.30;;;1.67;;
11481;SDS011;5797;51.662;6.748;2022-10-16T06:49:39;2.97;;;1.80;;
11481;SDS011;5797;51.662;6.748;2022-10-16T06:52:27;2.87;;;1.60;;
11481;SDS011;5797;51.662;6.748;2022-10-16T06:55:19;8.67;;;2.10;;
11481;SDS011;5797;51.662;6.748;2022-10-16T06:58:06;4.10;;;1.77;;
11481;SDS011;5797;51.662;6.748;2022-10-16T07:00:55;3.03;;;2.07;;
11481;SDS011;5797;51.662;6.748;2022-10-16T07:03:45;3.97;;;2.03;;
11481;SDS011;5797;51.662;6.748;2022-10-16T07:06:33;5.37;;;1.93;;
11481;SDS011;5797;51.662;6.748;2022-10-16T07:09:26;3.93;;;2.13;;
11481;SDS011;5797;51.662;6.748;2022-10-16T07:12:13;2.43;;;2.17;;
11481;SDS011;5797;51.662;6.748;2022-10-16T07:15:00;3.50;;;2.20;;
11481;SDS011;5797;51.662;6.748;2022-10-16T07:17:47;6.57;;;3.70;;
11481;SDS011;5797;51.662;6.748;2022-10-16T07:20:39;5.57;;;3.20;;
11481;SDS011;5797;51.662;6.748;2022-10-16T07:23:27;6.87;;;2.97;;
11481;SDS011;5797;51.662;6.748;2022-10-16T07:26:16;5.63;;;3.00;;
11481;SDS011;5797;51.662;6.748;2022-10-16T07:29:03;6.20;;;3.30;;
11481;SDS011;5797;51.662;6.748;2022-10-16T07:31:50;5.63;;;3.13;;
11481;SDS011;5797;51.662;6.748;2022-10-16T07:34:38;4.37;;;2.73;;
11481;SDS011;5797;51.662;6.748;2022-10-16T07:37:26;5.70;;;2.37;;
11481;SDS011;5797;51.662;6.748;2022-10-16T07:40:14;6.83;;;2.93;;
11481;SDS011;5797;51.662;6.748;2022-10-16T07:43:01;5.93;;;2.97;;
11481;SDS011;5797;51.662;6.748;2022-10-16T07:45:51;3.50;;;3.20;;
11481;SDS011;5797;51.662;6.748;2022-10-16T07:48:38;4.30;;;2.50;;
11481;SDS011;5797;51.662;6.748;2022-10-16T07:51:25;4.33;;;2.90;;
11481;SDS011;5797;51.662;6.748;2022-10-16T07:54:14;4.77;;;2.70;;
11481;SDS011;5797;51.662;6.748;2022-10-16T07:57:01;5.43;;;2.43;;
11481;SDS011;5797;51.662;6.748;2022-10-16T07:59:47;2.40;;;2.20;;
11481;SDS011;5797;51.662;6.748;2022-10-16T08:02:34;2.97;;;2.33;;
11481;SDS011;5797;51.662;6.748;2022-10-16T08:05:39;3.10;;;2.27;;
11481;SDS011;5797;51.662;6.748;2022-10-16T08:08:26;8.23;;;2.23;;
11481;SDS011;5797;51.662;6.748;2022-10-16T08:11:15;4.93;;;2.30;;
11481;SDS011;5797;51.662;6.748;2022-10-16T08:14:02;5.37;;;2.67;;
11481;SDS011;5797;51.662;6.748;2022-10-16T08:16:49;6.40;;;3.27;;
11481;SDS011;5797;51.662;6.748;2022-10-16T08:19:36;4.73;;;2.70;;
11481;SDS011;5797;51.662;6.748;2022-10-16T08:22:23;5.13;;;2.20;;
11481;SDS011;5797;51.662;6.748;2022-10-16T08:25:10;4.23;;;2.60;;
11481;SDS011;5797;51.662;6.748;2022-10-16T08:27:59;4.87;;;2.63;;
11481;SDS011;5797;51.662;6.748;2022-10-16T08:30:45;4.53;;;2.57;;
11481;SDS011;5797;51.662;6.748;2022-10-16T08:33:36;3.27;;;2.90;;
11481;SDS011;5797;51.662;6.748;2022-10-16T08:36:24;5.83;;;2.87;;
11481;SDS011;5797;51.662;6.748;2022-10-16T08:39:11;6.00;;;2.67;;
11481;SDS011;5797;51.662;6.748;2022-10-16T08:45:18;4.63;;;2.70;;
11481;SDS011;5797;51.662;6.748;2022-10-16T08:48:10;3.53;;;2.83;;
11481;SDS011;5797;51.662;6.748;2022-10-16T08:51:04;4.80;;;3.17;;
11481;SDS011;5797;51.662;6.748;2022-10-16T08:53:52;4.67;;;3.10;;
11481;SDS011;5797;51.662;6.748;2022-10-16T08:56:41;3.37;;;2.30;;
11481;SDS011;5797;51.662;6.748;2022-10-16T08:59:28;5.90;;;2.40;;
11481;SDS011;5797;51.662;6.748;2022-10-16T09:02:22;3.37;;;2.20;;
11481;SDS011;5797;51.662;6.748;2022-10-16T09:05:19;6.20;;;2.17;;
11481;SDS011;5797;51.662;6.748;2022-10-16T09:08:12;5.67;;;2.20;;
11481;SDS011;5797;51.662;6.748;2022-10-16T09:11:06;5.07;;;1.97;;
11481;SDS011;5797;51.662;6.748;2022-10-16T09:13:57;5.80;;;2.33;;
11481;SDS011;5797;51.662;6.748;2022-10-16T09:16:48;3.97;;;1.83;;
11481;SDS011;5797;51.662;6.748;2022-10-16T09:19:43;2.37;;;1.70;;
11481;SDS011;5797;51.662;6.748;2022-10-16T09:22:33;3.50;;;2.20;;
11481;SDS011;5797;51.662;6.748;2022-10-16T09:25:20;2.90;;;1.70;;
11481;SDS011;5797;51.662;6.748;2022-10-16T09:28:08;3.60;;;1.80;;
11481;SDS011;5797;51.662;6.748;2022-10-16T09:30:56;3.47;;;1.80;;
11481;SDS011;5797;51.662;6.748;2022-10-16T09:33:43;4.90;;;1.80;;
11481;SDS011;5797;51.662;6.748;2022-10-16T09:36:35;2.80;;;1.70;;
11481;SDS011;5797;51.662;6.748;2022-10-16T09:39:27;4.20;;;2.10;;
11481;SDS011;5797;51.662;6.748;2022-10-16T09:42:15;4.57;;;1.80;;
11481;SDS011;5797;51.662;6.748;2022-10-16T09:45:03;4.87;;;1.83;;
11481;SDS011;5797;51.662;6.748;2022-10-16T09:47:51;3.83;;;1.67;;
11481;SDS011;5797;51.662;6.748;2022-10-16T09:50:40;2.87;;;2.07;;
11481;SDS011;5797;51.662;6.748;2022-10-16T09:53:39;2.63;;;1.80;;
11481;SDS011;5797;51.662;6.748;2022-10-16T09:56:28;3.80;;;1.80;;
11481;SDS011;5797;51.662;6.748;2022-10-16T09:59:19;4.30;;;1.93;;
11481;SDS011;5797;51.662;6.748;2022-10-16T10:02:10;3.73;;;2.20;;
11481;SDS011;5797;51.662;6.748;2022-10-16T10:04:58;6.17;;;1.80;;
11481;SDS011;5797;51.662;6.748;2022-10-16T10:07:45;4.53;;;1.77;;
11481;SDS011;5797;51.662;6.748;2022-10-16T10:10:34;4.40;;;1.73;;
11481;SDS011;5797;51.662;6.748;2022-10-16T10:13:26;1.77;;;1.50;;
11481;SDS011;5797;51.662;6.748;2022-10-16T10:16:23;3.50;;;1.30;;
11481;SDS011;5797;51.662;6.748;2022-10-16T10:19:12;2.33;;;1.57;;
11481;SDS011;5797;51.662;6.748;2022-10-16T10:22:00;4.47;;;1.97;;
11481;SDS011;5797;51.662;6.748;2022-10-16T10:28:14;2.03;;;1.43;;
11481;SDS011;5797;51.662;6.748;2022-10-16T10:31:07;5.80;;;1.80;;
11481;SDS011;5797;51.662;6.748;2022-10-16T10:38:49;2.90;;;1.27;;
11481;SDS011;5797;51.662;6.748;2022-10-16T10:41:59;2.40;;;1.33;;
11481;SDS011;5797;51.662;6.748;2022-10-16T10:45:04;2.30;;;1.67;;
11481;SDS011;5797;51.662;6.748;2022-10-16T10:48:09;3.50;;;1.60;;
11481;SDS011;5797;51.662;6.748;2022-10-16T10:51:04;4.27;;;1.50;;
11481;SDS011;5797;51.662;6.748;2022-10-16T10:54:22;3.07;;;1.70;;
11481;SDS011;5797;51.662;6.748;2022-10-16T10:57:15;5.00;;;1.40;;
11481;SDS011;5797;51.662;6.748;2022-10-16T11:00:15;3.00;;;1.67;;
11481;SDS011;5797;51.662;6.748;2022-10-16T11:03:08;4.33;;;1.33;;
11481;SDS011;5797;51.662;6.748;2022-10-16T11:06:04;3.60;;;1.60;;
11481;SDS011;5797;51.662;6.748;2022-10-16T11:08:53;7.00;;;1.60;;
11481;SDS011;5797;51.662;6.748;2022-10-16T11:11:47;3.37;;;1.50;;
11481;SDS011;5797;51.662;6.748;2022-10-16T11:14:38;1.30;;;1.20;;
11481;SDS011;5797;51.662;6.748;2022-10-16T11:17:30;3.17;;;1.50;;
11481;SDS011;5797;51.662;6.748;2022-10-16T11:20:21;2.13;;;1.30;;
11481;SDS011;5797;51.662;6.748;2022-10-16T11:23:11;2.93;;;1.30;;
11481;SDS011;5797;51.662;6.748;2022-10-16T11:26:04;1.50;;;1.20;;
11481;SDS011;5797;51.662;6.748;2022-10-16T11:32:34;2.83;;;1.37;;
11481;SDS011;5797;51.662;6.748;2022-10-16T11:35:38;7.37;;;1.60;;
11481;SDS011;5797;51.662;6.748;2022-10-16T11:38:29;6.20;;;1.33;;
11481;SDS011;5797;51.662;6.748;2022-10-16T11:41:21;4.57;;;1.20;;
11481;SDS011;5797;51.662;6.748;2022-10-16T11:44:15;4.57;;;1.53;;
11481;SDS011;5797;51.662;6.748;2022-10-16T11:52:02;3.43;;;1.40;;
11481;SDS011;5797;51.662;6.748;2022-10-16T11:54:55;4.40;;;1.67;;
11481;SDS011;5797;51.662;6.748;2022-10-16T11:57:45;1.40;;;1.30;;
11481;SDS011;5797;51.662;6.748;2022-10-16T12:00:36;4.07;;;1.93;;
11481;SDS011;5797;51.662;6.748;2022-10-16T12:03:28;3.77;;;2.00;;
11481;SDS011;5797;51.662;6.748;2022-10-16T12:06:22;2.40;;;1.47;;
11481;SDS011;5797;51.662;6.748;2022-10-16T12:09:19;6.43;;;1.90;;
11481;SDS011;5797;51.662;6.748;2022-10-16T12:12:23;5.70;;;1.60;;
11481;SDS011;5797;51.662;6.748;2022-10-16T12:15:20;4.07;;;1.63;;
11481;SDS011;5797;51.662;6.748;2022-10-16T12:18:30;3.33;;;1.93;;
11481;SDS011;5797;51.662;6.748;2022-10-16T12:21:17;3.30;;;1.50;;
11481;SDS011;5797;51.662;6.748;2022-10-16T12:24:20;2.10;;;1.30;;
11481;SDS011;5797;51.662;6.748;2022-10-16T12:27:21;4.27;;;1.40;;
11481;SDS011;5797;51.662;6.748;2022-10-16T12:30:14;3.60;;;1.70;;
11481;SDS011;5797;51.662;6.748;2022-10-16T12:33:16;3.40;;;1.60;;
11481;SDS011;5797;51.662;6.748;2022-10-16T12:36:09;3.87;;;1.43;;
11481;SDS011;5797;51.662;6.748;2022-10-16T12:38:59;2.70;;;1.73;;
11481;SDS011;5797;51.662;6.748;2022-10-16T12:41:48;4.30;;;2.40;;
11481;SDS011;5797;51.662;6.748;2022-10-16T12:44:47;4.00;;;1.40;;
11481;SDS011;5797;51.662;6.748;2022-10-16T12:47:36;4.90;;;1.60;;
11481;SDS011;5797;51.662;6.748;2022-10-16T12:50:26;6.63;;;1.60;;
11481;SDS011;5797;51.662;6.748;2022-10-16T12:53:18;3.97;;;1.43;;
11481;SDS011;5797;51.662;6.748;2022-10-16T12:56:09;5.45;;;1.48;;
11481;SDS011;5797;51.662;6.748;2022-10-16T12:59:04;2.37;;;1.13;;
11481;SDS011;5797;51.662;6.748;2022-10-16T13:02:01;4.90;;;1.48;;
11481;SDS011;5797;51.662;6.748;2022-10-16T13:05:03;6.82;;;2.00;;
11481;SDS011;5797;51.662;6.748;2022-10-16T13:08:09;2.47;;;1.40;;
11481;SDS011;5797;51.662;6.748;2022-10-16T13:11:05;3.45;;;1.55;;
11481;SDS011;5797;51.662;6.748;2022-10-16T13:14:02;2.30;;;1.33;;
11481;SDS011;5797;51.662;6.748;2022-10-16T13:17:01;3.97;;;1.58;;
11481;SDS011;5797;51.662;6.748;2022-10-16T13:19:55;4.85;;;1.65;;
11481;SDS011;5797;51.662;6.748;2022-10-16T13:22:51;3.25;;;1.10;;
11481;SDS011;5797;51.662;6.748;2022-10-16T13:25:46;4.43;;;1.63;;
11481;SDS011;5797;51.662;6.748;2022-10-16T13:28:42;3.30;;;1.27;;
11481;SDS011;5797;51.662;6.748;2022-10-16T13:31:31;1.83;;;1.30;;
11481;SDS011;5797;51.662;6.748;2022-10-16T13:34:21;3.60;;;1.27;;
11481;SDS011;5797;51.662;6.748;2022-10-16T13:37:15;4.78;;;1.70;;
11481;SDS011;5797;51.662;6.748;2022-10-16T13:40:09;3.55;;;1.42;;
11481;SDS011;5797;51.662;6.748;2022-10-16T13:43:05;3.85;;;1.30;;
11481;SDS011;5797;51.662;6.748;2022-10-16T13:45:52;1.88;;;1.55;;
11481;SDS011;5797;51.662;6.748;2022-10-16T13:48:42;2.67;;;1.15;;
11481;SDS011;5797;51.662;6.748;2022-10-16T13:51:30;2.87;;;1.20;;
11481;SDS011;5797;51.662;6.748;2022-10-16T13:54:18;5.03;;;1.10;;
11481;SDS011;5797;51.662;6.748;2022-10-16T13:57:06;2.90;;;1.30;;
11481;SDS011;5797;51.662;6.748;2022-10-16T14:00:20;1.73;;;1.40;;
11481;SDS011;5797;51.662;6.748;2022-10-16T14:03:10;4.83;;;1.30;;
11481;SDS011;5797;51.662;6.748;2022-10-16T14:06:01;2.00;;;1.30;;
11481;SDS011;5797;51.662;6.748;2022-10-16T14:08:50;2.33;;;1.40;;
11481;SDS011;5797;51.662;6.748;2022-10-16T14:11:44;3.10;;;1.63;;
11481;SDS011;5797;51.662;6.748;2022-10-16T14:14:34;3.77;;;1.40;;
11481;SDS011;5797;51.662;6.748;2022-10-16T14:17:26;3.03;;;1.23;;
11481;SDS011;5797;51.662;6.748;2022-10-16T14:20:15;4.03;;;1.47;;
11481;SDS011;5797;51.662;6.748;2022-10-16T14:23:16;5.23;;;1.30;;
11481;SDS011;5797;51.662;6.748;2022-10-16T14:26:12;4.60;;;1.30;;
11481;SDS011;5797;51.662;6.748;2022-10-16T14:29:10;4.30;;;1.57;;
11481;SDS011;5797;51.662;6.748;2022-10-16T14:31:59;2.53;;;1.30;;
11481;SDS011;5797;51.662;6.748;2022-10-16T14:34:52;1.53;;;1.33;;
11481;SDS011;5797;51.662;6.748;2022-10-16T14:37:40;6.77;;;1.47;;
11481;SDS011;5797;51.662;6.748;2022-10-16T14:40:29;2.43;;;1.20;;
11481;SDS011;5797;51.662;6.748;2022-10-16T14:43:20;2.47;;;1.37;;
11481;SDS011;5797;51.662;6.748;2022-10-16T14:46:09;2.27;;;1.67;;
11481;SDS011;5797;51.662;6.748;2022-10-16T14:49:00;4.00;;;1.40;;
11481;SDS011;5797;51.662;6.748;2022-10-16T14:51:50;4.33;;;1.23;;
11481;SDS011;5797;51.662;6.748;2022-10-16T14:54:37;2.00;;;1.10;;
11481;SDS011;5797;51.662;6.748;2022-10-16T14:57:27;1.40;;;1.10;;
11481;SDS011;5797;51.662;6.748;2022-10-16T15:00:16;4.20;;;1.43;;
11481;SDS011;5797;51.662;6.748;2022-10-16T15:03:04;2.37;;;1.40;;
11481;SDS011;5797;51.662;6.748;2022-10-16T15:05:51;3.47;;;1.40;;
11481;SDS011;5797;51.662;6.748;2022-10-16T15:08:38;2.60;;;1.43;;
11481;SDS011;5797;51.662;6.748;2022-10-16T15:11:25;3.67;;;1.60;;
11481;SDS011;5797;51.662;6.748;2022-10-16T15:14:16;2.17;;;1.40;;
11481;SDS011;5797;51.662;6.748;2022-10-16T15:17:03;5.23;;;1.60;;
11481;SDS011;5797;51.662;6.748;2022-10-16T15:19:50;8.23;;;1.77;;
11481;SDS011;5797;51.662;6.748;2022-10-16T15:22:36;3.13;;;1.20;;
11481;SDS011;5797;51.662;6.748;2022-10-16T15:25:33;1.20;;;1.10;;
11481;SDS011;5797;51.662;6.748;2022-10-16T15:28:22;2.13;;;1.17;;
11481;SDS011;5797;51.662;6.748;2022-10-16T15:31:12;1.30;;;1.10;;
11481;SDS011;5797;51.662;6.748;2022-10-16T15:33:59;2.23;;;1.30;;
11481;SDS011;5797;51.662;6.748;2022-10-16T15:36:49;2.33;;;1.20;;
11481;SDS011;5797;51.662;6.748;2022-10-16T15:39:37;4.87;;;1.57;;
11481;SDS011;5797;51.662;6.748;2022-10-16T15:42:25;4.33;;;1.50;;
11481;SDS011;5797;51.662;6.748;2022-10-16T15:45:13;3.57;;;1.40;;
11481;SDS011;5797;51.662;6.748;2022-10-16T15:48:01;3.30;;;1.20;;
11481;SDS011;5797;51.662;6.748;2022-10-16T15:50:48;8.33;;;1.37;;
11481;SDS011;5797;51.662;6.748;2022-10-16T19:01:25;4.30;;;2.40;;
11481;SDS011;5797;51.662;6.748;2022-10-16T19:04:32;5.53;;;2.30;;
11481;SDS011;5797;51.662;6.748;2022-10-16T19:07:19;5.50;;;2.40;;
11481;SDS011;5797;51.662;6.748;2022-10-16T19:10:08;5.83;;;2.30;;
11481;SDS011;5797;51.662;6.748;2022-10-16T19:12:57;4.60;;;2.90;;
11481;SDS011;5797;51.662;6.748;2022-10-16T19:15:44;9.83;;;5.57;;
11481;SDS011;5797;51.662;6.748;2022-10-16T19:18:41;6.60;;;3.47;;
11481;SDS011;5797;51.662;6.748;2022-10-16T19:21:29;8.00;;;3.50;;
11481;SDS011;5797;51.662;6.748;2022-10-16T19:24:17;7.43;;;3.60;;
11481;SDS011;5797;51.662;6.748;2022-10-16T19:27:03;4.60;;;3.20;;
11481;SDS011;5797;51.662;6.748;2022-10-16T19:29:50;4.33;;;3.17;;
11481;SDS011;5797;51.662;6.748;2022-10-16T19:32:37;7.30;;;3.20;;
11481;SDS011;5797;51.662;6.748;2022-10-16T19:35:25;3.57;;;2.70;;
11481;SDS011;5797;51.662;6.748;2022-10-16T19:38:13;6.70;;;3.13;;
11481;SDS011;5797;51.662;6.748;2022-10-16T19:41:03;5.27;;;3.60;;
11481;SDS011;5797;51.662;6.748;2022-10-16T19:43:51;6.10;;;3.37;;
11481;SDS011;5797;51.662;6.748;2022-10-16T19:46:38;6.80;;;3.60;;
11481;SDS011;5797;51.662;6.748;2022-10-16T19:49:25;7.23;;;2.90;;
11481;SDS011;5797;51.662;6.748;2022-10-16T19:52:14;7.83;;;3.30;;
11481;SDS011;5797;51.662;6.748;2022-10-16T19:55:02;3.63;;;2.90;;
11481;SDS011;5797;51.662;6.748;2022-10-16T19:57:49;5.90;;;3.20;;
11481;SDS011;5797;51.662;6.748;2022-10-16T20:00:39;8.53;;;3.17;;
11481;SDS011;5797;51.662;6.748;2022-10-16T20:03:26;5.80;;;3.07;;
11481;SDS011;5797;51.662;6.748;2022-10-16T20:06:14;6.70;;;2.83;;
11481;SDS011;5797;51.662;6.748;2022-10-16T20:09:02;9.00;;;3.10;;
11481;SDS011;5797;51.662;6.748;2022-10-16T20:11:49;5.77;;;2.93;;
11481;SDS011;5797;51.662;6.748;2022-10-16T20:14:36;5.20;;;3.13;;
11481;SDS011;5797;51.662;6.748;2022-10-16T20:17:23;4.27;;;3.00;;
11481;SDS011;5797;51.662;6.748;2022-10-16T20:20:10;6.33;;;3.53;;
11481;SDS011;5797;51.662;6.748;2022-10-16T20:22:57;7.73;;;3.33;;
11481;SDS011;5797;51.662;6.748;2022-10-16T20:25:46;5.10;;;3.80;;
11481;SDS011;5797;51.662;6.748;2022-10-16T20:28:33;5.73;;;3.10;;
11481;SDS011;5797;51.662;6.748;2022-10-16T20:31:21;3.30;;;3.00;;
11481;SDS011;5797;51.662;6.748;2022-10-16T20:34:10;5.10;;;3.60;;
11481;SDS011;5797;51.662;6.748;2022-10-16T20:36:57;5.47;;;3.00;;
11481;SDS011;5797;51.662;6.748;2022-10-16T20:39:44;6.80;;;3.30;;
11481;SDS011;5797;51.662;6.748;2022-10-16T20:42:32;6.77;;;3.30;;
11481;SDS011;5797;51.662;6.748;2022-10-16T20:45:19;7.03;;;3.50;;
11481;SDS011;5797;51.662;6.748;2022-10-16T20:48:06;5.90;;;3.73;;
11481;SDS011;5797;51.662;6.748;2022-10-16T20:50:56;4.33;;;3.60;;